createdAt,value
2019-02-17T00:01:49.365Z,27.82
2019-02-17T00:04:17.917Z,28.77
2019-02-17T00:06:46.509Z,27.85
2019-02-17T00:09:15.348Z,32.10
2019-02-17T00:11:43.945Z,30.43
2019-02-17T00:14:12.501Z,32.75
2019-02-17T00:16:41.059Z,30.90
2019-02-17T00:19:09.658Z,32.45
2019-02-17T00:21:38.217Z,29.23
2019-02-17T00:24:06.779Z,29.32
2019-02-17T00:26:35.368Z,28.40
2019-02-17T00:29:03.947Z,27.77
2019-02-17T00:31:32.541Z,31.48
2019-02-17T00:34:01.095Z,30.12
2019-02-17T00:36:29.674Z,28.77
2019-02-17T00:38:58.268Z,29.60
2019-02-17T00:41:26.828Z,30.00
2019-02-17T00:43:55.381Z,27.73
2019-02-17T00:46:23.970Z,28.92
2019-02-17T00:48:52.526Z,26.48
2019-02-17T00:51:21.110Z,30.77
2019-02-17T00:53:49.704Z,29.37
2019-02-17T00:56:18.253Z,31.82
2019-02-17T00:58:46.810Z,28.30
2019-02-17T01:01:15.406Z,32.23
2019-02-17T01:03:43.958Z,28.67
2019-02-17T01:06:12.572Z,28.92
2019-02-17T01:08:41.111Z,29.52
2019-02-17T01:11:09.668Z,28.00
2019-02-17T01:13:38.256Z,33.25
2019-02-17T01:16:07.169Z,31.95
2019-02-17T01:18:35.760Z,36.50
2019-02-17T01:21:04.316Z,32.60
2019-02-17T01:23:32.873Z,31.65
2019-02-17T01:26:01.463Z,32.30
2019-02-17T01:28:30.055Z,34.50
2019-02-17T01:30:58.639Z,34.30
2019-02-17T01:33:27.237Z,31.35
2019-02-17T01:35:55.796Z,33.23
2019-02-17T01:38:24.354Z,31.07
2019-02-17T01:40:52.950Z,31.70
2019-02-17T01:43:21.518Z,33.78
2019-02-17T01:45:50.076Z,35.17
2019-02-17T01:48:18.762Z,35.13
2019-02-17T01:50:47.322Z,31.07
2019-02-17T01:53:15.942Z,29.80
2019-02-17T01:55:46.945Z,30.15
2019-02-17T01:58:14.809Z,28.45
2019-02-17T02:00:43.398Z,35.75
2019-02-17T02:03:11.959Z,34.23
2019-02-17T02:05:40.513Z,31.45
2019-02-17T02:08:09.110Z,30.65
2019-02-17T02:10:37.668Z,29.23
2019-02-17T02:13:06.998Z,30.88
2019-02-17T02:15:35.970Z,31.33
2019-02-17T02:18:05.375Z,35.00
2019-02-17T02:20:35.068Z,30.80
2019-02-17T02:23:04.802Z,32.03
2019-02-17T02:25:34.920Z,30.32
2019-02-17T02:28:04.601Z,31.37
2019-02-17T02:30:34.358Z,31.23
2019-02-17T02:33:04.023Z,35.45
2019-02-17T02:35:33.741Z,32.90
2019-02-17T02:38:03.174Z,37.85
2019-02-17T02:40:32.950Z,37.55
2019-02-17T02:43:02.483Z,34.08
2019-02-17T02:45:31.079Z,34.15
2019-02-17T02:47:59.646Z,33.40
2019-02-17T02:50:28.672Z,32.38
2019-02-17T02:52:58.511Z,33.85
2019-02-17T02:55:27.450Z,34.00
2019-02-17T02:57:56.792Z,36.77
2019-02-17T03:00:26.440Z,35.58
2019-02-17T03:02:55.768Z,35.90
2019-02-17T03:05:25.410Z,31.40
2019-02-17T03:07:54.680Z,31.57
2019-02-17T03:10:24.411Z,33.02
2019-02-17T03:12:54.094Z,31.23
2019-02-17T03:15:23.795Z,32.80
2019-02-17T03:17:53.228Z,31.62
2019-02-17T03:20:22.588Z,30.00
2019-02-17T03:22:52.313Z,32.55
2019-02-17T03:25:22.160Z,32.83
2019-02-17T03:27:51.823Z,34.88
2019-02-17T03:30:23.418Z,32.53
2019-02-17T03:32:53.240Z,34.38
2019-02-17T03:35:23.140Z,29.23
2019-02-17T03:37:53.034Z,29.98
2019-02-17T03:40:22.932Z,32.73
2019-02-17T03:42:52.735Z,28.95
2019-02-17T03:45:22.392Z,29.07
2019-02-17T03:47:51.734Z,31.17
2019-02-17T03:50:21.343Z,35.30
2019-02-17T03:52:51.083Z,36.17
2019-02-17T03:55:20.627Z,29.65
2019-02-17T03:57:50.264Z,30.55
2019-02-17T04:00:18.837Z,28.85
2019-02-17T04:02:48.423Z,29.67
2019-02-17T04:05:17.822Z,30.23
2019-02-17T04:07:47.544Z,29.35
2019-02-17T04:10:16.097Z,30.43
2019-02-17T04:12:45.083Z,31.55
2019-02-17T04:15:14.143Z,31.68
2019-02-17T04:17:43.415Z,34.58
2019-02-17T04:20:12.370Z,37.23
2019-02-17T04:22:40.939Z,35.30
2019-02-17T04:25:09.819Z,38.25
2019-02-17T04:27:38.988Z,34.20
2019-02-17T04:30:07.619Z,37.42
2019-02-17T04:32:36.882Z,34.25
2019-02-17T04:35:06.281Z,36.20
2019-02-17T04:37:35.175Z,29.98
2019-02-17T04:40:04.091Z,31.15
2019-02-17T04:42:33.017Z,32.30
2019-02-17T04:45:01.592Z,34.40
2019-02-17T04:47:30.939Z,33.23
2019-02-17T04:49:59.524Z,33.90
2019-02-17T04:52:28.158Z,37.90
2019-02-17T04:54:57.103Z,35.65
2019-02-17T04:57:26.165Z,36.25
2019-02-17T04:59:54.734Z,32.28
2019-02-17T05:02:23.286Z,37.08
2019-02-17T05:04:51.879Z,35.23
2019-02-17T05:07:21.080Z,33.10
2019-02-17T05:09:50.307Z,37.83
2019-02-17T05:12:18.888Z,30.10
2019-02-17T05:14:47.824Z,34.75
2019-02-17T05:17:16.751Z,34.27
2019-02-17T05:19:45.313Z,36.42
2019-02-17T05:22:13.963Z,34.67
2019-02-17T05:24:42.937Z,33.45
2019-02-17T05:27:11.493Z,32.95
2019-02-17T05:29:40.124Z,33.58
2019-02-17T05:32:08.807Z,34.13
2019-02-17T05:34:37.801Z,32.33
2019-02-17T05:37:06.352Z,29.80
2019-02-17T05:39:35.651Z,28.62
2019-02-17T05:42:04.920Z,26.57
2019-02-17T05:44:33.475Z,29.35
2019-02-17T05:47:03.038Z,30.70
2019-02-17T05:49:32.696Z,33.42
2019-02-17T05:52:02.331Z,33.53
2019-02-17T05:54:31.664Z,35.75
2019-02-17T05:57:01.103Z,37.48
2019-02-17T05:59:30.507Z,34.50
2019-02-17T06:02:00.179Z,33.95
2019-02-17T06:04:29.661Z,33.42
2019-02-17T06:06:59.330Z,32.93
2019-02-17T06:09:29.011Z,34.75
2019-02-17T06:11:58.338Z,33.65
2019-02-17T06:14:28.057Z,36.20
2019-02-17T06:16:56.959Z,34.45
2019-02-17T06:19:26.351Z,32.23
2019-02-17T06:21:56.059Z,33.45
2019-02-17T06:24:25.508Z,33.30
2019-02-17T06:26:54.798Z,35.38
2019-02-17T06:29:24.182Z,37.08
2019-02-17T06:31:53.540Z,37.42
2019-02-17T06:34:22.432Z,39.30
2019-02-17T06:36:51.379Z,35.98
2019-02-17T06:39:21.668Z,37.53
2019-02-17T06:41:51.331Z,40.52
2019-02-17T06:44:20.702Z,35.75
2019-02-17T06:46:54.332Z,36.83
2019-02-17T06:49:23.846Z,40.98
2019-02-17T06:51:52.804Z,35.40
2019-02-17T06:54:22.536Z,40.48
2019-02-17T06:57:05.602Z,40.10
2019-02-17T06:59:35.271Z,36.77
2019-02-17T07:02:04.990Z,43.60
2019-02-17T07:04:56.122Z,42.35
2019-02-17T07:07:25.826Z,43.85
2019-02-17T07:09:55.803Z,45.92
2019-02-17T07:12:42.547Z,47.75
2019-02-17T07:15:11.632Z,45.28
2019-02-17T07:17:41.030Z,50.90
2019-02-17T07:20:10.756Z,75.78
2019-02-17T07:22:40.132Z,88.35
2019-02-17T07:25:09.462Z,68.78
2019-02-17T07:27:38.506Z,52.17
2019-02-17T07:30:08.261Z,46.45
2019-02-17T07:32:37.825Z,44.88
2019-02-17T07:35:06.957Z,39.98
2019-02-17T07:37:36.350Z,42.15
2019-02-17T07:40:06.039Z,39.55
2019-02-17T07:42:35.349Z,41.80
2019-02-17T07:45:04.754Z,39.63
2019-02-17T07:47:33.739Z,42.50
2019-02-17T07:50:02.745Z,52.33
2019-02-17T07:52:31.304Z,53.52
2019-02-17T07:55:00.370Z,48.73
2019-02-17T07:57:29.338Z,47.67
2019-02-17T07:59:58.721Z,45.38
2019-02-17T08:02:28.008Z,44.90
2019-02-17T08:04:57.058Z,38.63
2019-02-17T08:07:26.554Z,37.95
2019-02-17T08:09:56.233Z,39.25
2019-02-17T08:12:25.587Z,37.40
2019-02-17T08:14:54.549Z,38.45
2019-02-17T08:17:24.299Z,37.08
2019-02-17T08:19:53.504Z,37.85
2019-02-17T08:22:22.398Z,41.65
2019-02-17T08:24:51.345Z,37.15
2019-02-17T08:27:19.910Z,39.40
2019-02-17T08:29:48.487Z,42.00
2019-02-17T08:32:17.433Z,38.65
2019-02-17T08:34:45.983Z,38.55
2019-02-17T08:37:14.919Z,33.73
2019-02-17T08:39:43.507Z,36.40
2019-02-17T08:42:12.054Z,39.55
2019-02-17T08:44:40.610Z,34.27
2019-02-17T08:47:09.269Z,31.15
2019-02-17T08:49:37.852Z,34.85
2019-02-17T08:52:07.122Z,35.68
2019-02-17T08:54:35.706Z,37.78
2019-02-17T08:57:04.744Z,36.90
2019-02-17T08:59:34.491Z,36.93
2019-02-17T09:02:05.941Z,41.13
2019-02-17T09:04:34.789Z,39.58
2019-02-17T09:07:03.671Z,39.35
2019-02-17T09:09:33.290Z,35.68
2019-02-17T09:12:02.481Z,36.35
2019-02-17T09:14:32.066Z,35.52
2019-02-17T09:17:01.355Z,33.28
2019-02-17T09:19:31.080Z,31.20
2019-02-17T09:22:02.802Z,33.02
2019-02-17T09:24:32.133Z,34.63
2019-02-17T09:27:00.804Z,30.08
2019-02-17T09:29:30.432Z,32.42
2019-02-17T09:31:59.533Z,31.77
2019-02-17T09:34:28.171Z,30.00
2019-02-17T09:36:57.479Z,30.27
2019-02-17T09:39:26.371Z,31.40
2019-02-17T09:41:54.923Z,23.70
2019-02-17T09:44:23.489Z,27.70
2019-02-17T09:46:52.079Z,26.27
2019-02-17T09:49:21.359Z,25.55
2019-02-17T09:51:50.365Z,26.25
2019-02-17T09:54:18.968Z,23.87
2019-02-17T09:56:47.574Z,24.07
2019-02-17T09:59:16.149Z,24.80
2019-02-17T10:01:44.706Z,27.05
2019-02-17T10:04:13.309Z,23.25
2019-02-17T10:06:41.868Z,23.32
2019-02-17T10:09:10.426Z,20.97
2019-02-17T10:11:39.022Z,22.62
2019-02-17T10:14:07.577Z,21.07
2019-02-17T10:16:36.134Z,21.65
2019-02-17T10:19:04.722Z,23.27
2019-02-17T10:21:33.355Z,23.77
2019-02-17T10:24:01.914Z,22.67
2019-02-17T10:26:30.481Z,23.10
2019-02-17T10:28:59.082Z,21.25
2019-02-17T10:31:27.635Z,21.80
2019-02-17T10:33:56.215Z,22.60
2019-02-17T10:36:24.842Z,22.15
2019-02-17T10:38:53.399Z,21.55
2019-02-17T10:41:22.285Z,20.72
2019-02-17T10:43:50.886Z,22.22
2019-02-17T10:46:19.440Z,22.20
2019-02-17T10:48:48.002Z,21.70
2019-02-17T10:51:16.586Z,21.85
2019-02-17T10:53:45.510Z,20.27
2019-02-17T10:56:14.092Z,22.25
2019-02-17T10:58:42.683Z,22.32
2019-02-17T11:01:11.251Z,21.65
2019-02-17T11:03:39.866Z,21.27
2019-02-17T11:06:08.433Z,21.55
2019-02-17T11:08:37.000Z,22.10
2019-02-17T11:11:05.604Z,20.90
2019-02-17T11:13:34.174Z,20.95
2019-02-17T11:16:02.761Z,21.33
2019-02-17T11:18:31.369Z,20.60
2019-02-17T11:21:00.347Z,22.27
2019-02-17T11:23:28.957Z,21.02
2019-02-17T11:25:58.277Z,21.45
2019-02-17T11:28:27.681Z,21.15
2019-02-17T11:30:57.087Z,22.30
2019-02-17T11:33:26.738Z,20.02
2019-02-17T11:35:56.032Z,20.05
2019-02-17T11:38:25.711Z,21.12
2019-02-17T11:40:54.378Z,19.95
2019-02-17T11:43:23.618Z,22.05
2019-02-17T11:45:53.310Z,21.48
2019-02-17T11:48:23.052Z,21.12
2019-02-17T11:50:52.352Z,21.37
2019-02-17T11:53:21.717Z,20.40
2019-02-17T11:55:52.291Z,20.85
2019-02-17T11:58:21.869Z,20.35
2019-02-17T12:00:51.199Z,19.55
2019-02-17T12:03:20.825Z,20.52
2019-02-17T12:05:50.065Z,20.62
2019-02-17T12:08:19.476Z,20.27
2019-02-17T12:10:48.774Z,20.72
2019-02-17T12:13:18.528Z,19.73
2019-02-17T12:15:48.022Z,20.50
2019-02-17T12:18:17.221Z,20.92
2019-02-17T12:20:57.551Z,20.25
2019-02-17T12:23:41.901Z,20.10
2019-02-17T12:26:27.508Z,19.57
2019-02-17T12:29:19.621Z,19.25
2019-02-17T12:31:48.581Z,20.43
2019-02-17T12:34:17.644Z,19.73
2019-02-17T12:36:47.167Z,19.87
2019-02-17T12:39:15.764Z,18.80
2019-02-17T12:41:44.637Z,19.42
2019-02-17T12:44:13.595Z,19.70
2019-02-17T12:46:43.344Z,19.85
2019-02-17T12:49:13.018Z,20.23
2019-02-17T12:51:42.388Z,19.75
2019-02-17T12:54:11.368Z,20.32
2019-02-17T12:56:40.327Z,20.72
2019-02-17T12:59:09.576Z,20.27
2019-02-17T13:01:38.567Z,19.65
2019-02-17T13:04:07.839Z,20.72
2019-02-17T13:06:36.396Z,18.50
2019-02-17T13:09:06.955Z,18.82
2019-02-17T13:11:35.519Z,19.85
2019-02-17T13:14:04.097Z,18.40
2019-02-17T13:16:32.651Z,19.85
2019-02-17T13:19:01.241Z,20.02
2019-02-17T13:21:29.857Z,20.12
2019-02-17T13:23:58.441Z,19.95
2019-02-17T13:26:26.992Z,19.05
2019-02-17T13:28:55.644Z,18.20
2019-02-17T13:31:24.236Z,19.87
2019-02-17T13:33:52.795Z,20.50
2019-02-17T13:36:21.356Z,18.17
2019-02-17T13:38:49.940Z,19.37
2019-02-17T13:41:18.497Z,19.15
2019-02-17T13:43:47.051Z,19.07
2019-02-17T13:46:16.111Z,19.48
2019-02-17T13:48:44.744Z,18.37
2019-02-17T13:51:13.294Z,18.20
2019-02-17T13:53:41.883Z,17.95
2019-02-17T13:56:10.437Z,18.20
2019-02-17T13:58:39.023Z,20.17
2019-02-17T14:01:07.601Z,20.75
2019-02-17T14:03:36.161Z,18.82
2019-02-17T14:06:04.749Z,18.77
2019-02-17T14:08:33.304Z,17.67
2019-02-17T14:11:01.901Z,17.37
2019-02-17T14:13:30.485Z,17.65
2019-02-17T14:15:59.069Z,16.40
2019-02-17T14:18:27.985Z,17.98
2019-02-17T14:20:56.572Z,17.42
2019-02-17T14:23:25.157Z,17.62
2019-02-17T14:25:53.747Z,17.67
2019-02-17T14:28:22.300Z,15.83
2019-02-17T14:30:51.192Z,18.12
2019-02-17T14:33:19.787Z,18.05
2019-02-17T14:35:48.644Z,15.93
2019-02-17T14:38:17.202Z,17.30
2019-02-17T14:40:45.870Z,17.12
2019-02-17T14:43:14.730Z,17.40
2019-02-17T14:45:43.616Z,15.20
2019-02-17T14:48:12.209Z,16.62
2019-02-17T14:50:40.791Z,16.80
2019-02-17T14:53:09.347Z,16.02
2019-02-17T14:55:38.080Z,15.60
2019-02-17T14:58:06.646Z,16.20
2019-02-17T15:00:35.545Z,16.17
2019-02-17T15:03:05.143Z,15.63
2019-02-17T15:05:34.527Z,16.20
2019-02-17T15:08:03.755Z,15.48
2019-02-17T15:10:33.399Z,16.48
2019-02-17T15:13:03.030Z,14.63
2019-02-17T15:15:32.452Z,15.93
2019-02-17T15:18:01.752Z,15.08
2019-02-17T15:20:30.686Z,15.60
2019-02-17T15:22:59.660Z,15.60
2019-02-17T15:25:29.010Z,14.87
2019-02-17T15:27:58.719Z,14.60
2019-02-17T15:30:28.354Z,14.78
2019-02-17T15:33:03.935Z,14.87
2019-02-17T15:35:29.005Z,14.85
2019-02-17T15:37:57.994Z,15.25
2019-02-17T15:40:27.614Z,14.28
2019-02-17T15:42:56.873Z,15.68
2019-02-17T15:45:25.503Z,15.88
2019-02-17T15:47:55.104Z,15.95
2019-02-17T15:50:24.802Z,17.25
2019-02-17T15:52:54.398Z,17.52
2019-02-17T15:55:25.609Z,14.55
2019-02-17T15:57:54.604Z,14.15
2019-02-17T16:00:23.871Z,13.18
2019-02-17T16:02:53.537Z,12.25
2019-02-17T16:05:23.307Z,12.15
2019-02-17T16:07:52.962Z,11.08
2019-02-17T16:10:22.674Z,12.03
2019-02-17T16:12:52.005Z,11.75
2019-02-17T16:15:21.731Z,12.40
2019-02-17T16:17:51.088Z,12.00
2019-02-17T16:20:20.819Z,13.13
2019-02-17T16:22:49.783Z,12.70
2019-02-17T16:25:19.093Z,12.70
2019-02-17T16:27:48.841Z,12.58
2019-02-17T16:30:18.522Z,13.30
2019-02-17T16:32:48.226Z,12.63
2019-02-17T16:35:17.985Z,13.90
2019-02-17T16:37:47.653Z,13.90
2019-02-17T16:40:17.375Z,14.23
2019-02-17T16:42:47.115Z,13.72
2019-02-17T16:45:16.792Z,13.58
2019-02-17T16:47:46.888Z,13.32
2019-02-17T16:50:18.172Z,14.70
2019-02-17T16:52:46.735Z,14.33
2019-02-17T16:55:15.301Z,14.05
2019-02-17T16:57:44.749Z,14.47
2019-02-17T17:00:18.746Z,15.55
2019-02-17T17:02:48.495Z,13.70
2019-02-17T17:05:17.857Z,15.78
2019-02-17T17:07:47.271Z,15.13
2019-02-17T17:10:16.998Z,15.35
2019-02-17T17:12:46.821Z,16.12
2019-02-17T17:15:16.594Z,15.58
2019-02-17T17:17:46.306Z,17.50
2019-02-17T17:20:16.086Z,18.57
2019-02-17T17:22:45.731Z,15.55
2019-02-17T17:25:15.437Z,16.37
2019-02-17T17:27:44.701Z,17.17
2019-02-17T17:30:14.565Z,17.48
2019-02-17T17:32:44.262Z,15.55
2019-02-17T17:35:14.026Z,16.30
2019-02-17T17:37:43.686Z,16.57
2019-02-17T17:40:13.415Z,15.93
2019-02-17T17:42:42.457Z,16.93
2019-02-17T17:45:13.225Z,15.65
2019-02-17T17:47:42.248Z,16.93
2019-02-17T17:50:13.098Z,16.85
2019-02-17T17:52:42.768Z,17.57
2019-02-17T17:55:12.440Z,16.93
2019-02-17T17:57:42.033Z,16.77
2019-02-17T18:00:13.738Z,16.95
2019-02-17T18:02:43.358Z,17.80
2019-02-17T18:05:13.108Z,17.45
2019-02-17T18:07:43.244Z,16.23
2019-02-17T18:10:14.156Z,16.93
2019-02-17T18:12:43.709Z,15.43
2019-02-17T18:15:13.488Z,16.32
2019-02-17T18:17:53.456Z,15.03
2019-02-17T18:20:14.958Z,15.30
2019-02-17T18:22:44.686Z,19.32
2019-02-17T18:25:14.033Z,16.60
2019-02-17T18:27:43.746Z,16.35
2019-02-17T18:30:16.376Z,18.70
2019-02-17T18:32:45.740Z,16.27
2019-02-17T18:35:19.786Z,14.95
2019-02-17T18:37:46.519Z,16.25
2019-02-17T18:40:16.117Z,15.32
2019-02-17T18:42:45.852Z,15.25
2019-02-17T18:45:15.132Z,16.62
2019-02-17T18:47:43.677Z,15.05
2019-02-17T18:50:12.926Z,16.62
2019-02-17T18:52:41.478Z,15.30
2019-02-17T18:55:11.815Z,14.47
2019-02-17T18:57:49.636Z,15.63
2019-02-17T19:00:13.235Z,15.03
2019-02-17T19:02:41.864Z,15.95
2019-02-17T19:05:11.143Z,16.32
2019-02-17T19:07:39.730Z,16.80
2019-02-17T19:10:09.883Z,15.13
2019-02-17T19:12:38.457Z,16.70
2019-02-17T19:15:08.117Z,15.80
2019-02-17T19:17:36.679Z,18.27
2019-02-17T19:20:06.378Z,17.45
2019-02-17T19:22:34.957Z,19.25
2019-02-17T19:25:03.577Z,18.45
2019-02-17T19:27:32.151Z,18.90
2019-02-17T19:30:00.741Z,22.32
2019-02-17T19:32:29.297Z,26.33
2019-02-17T19:34:57.846Z,18.55
2019-02-17T19:37:26.433Z,18.92
2019-02-17T19:39:54.990Z,16.57
2019-02-17T19:42:23.551Z,16.30
2019-02-17T19:44:52.146Z,16.90
2019-02-17T19:47:20.697Z,16.20
2019-02-17T19:49:49.264Z,16.52
2019-02-17T19:52:17.848Z,15.18
2019-02-17T19:54:46.400Z,16.70
2019-02-17T19:57:14.982Z,16.25
2019-02-17T19:59:43.574Z,16.12
2019-02-17T20:02:12.258Z,17.35
2019-02-17T20:04:59.829Z,16.93
2019-02-17T20:07:28.410Z,15.35
2019-02-17T20:09:56.964Z,15.68
2019-02-17T20:12:25.564Z,15.98
2019-02-17T20:14:54.414Z,15.28
2019-02-17T20:17:23.034Z,16.50
2019-02-17T20:19:51.620Z,15.40
2019-02-17T20:22:20.253Z,16.57
2019-02-17T20:24:48.826Z,15.63
2019-02-17T20:27:17.429Z,17.35
2019-02-17T20:29:45.990Z,17.10
2019-02-17T20:32:14.550Z,17.95
2019-02-17T20:34:43.149Z,15.58
2019-02-17T20:37:11.703Z,16.32
2019-02-17T20:39:41.337Z,16.75
2019-02-17T20:42:10.029Z,18.07
2019-02-17T20:44:38.874Z,17.65
2019-02-17T20:47:07.434Z,15.53
2019-02-17T20:49:36.414Z,15.60
2019-02-17T20:52:05.762Z,16.73
2019-02-17T20:54:35.303Z,17.05
2019-02-17T20:57:05.284Z,17.80
2019-02-17T20:59:34.364Z,18.40
2019-02-17T21:02:04.026Z,16.95
2019-02-17T21:04:33.734Z,18.10
2019-02-17T21:07:03.477Z,18.35
2019-02-17T21:09:33.281Z,17.87
2019-02-17T21:12:02.667Z,17.32
2019-02-17T21:14:32.461Z,16.82
2019-02-17T21:17:01.901Z,16.57
2019-02-17T21:19:31.489Z,19.67
2019-02-17T21:22:00.847Z,18.17
2019-02-17T21:24:30.510Z,17.60
2019-02-17T21:27:00.137Z,18.50
2019-02-17T21:29:29.518Z,18.23
2019-02-17T21:31:58.806Z,19.15
2019-02-17T21:34:28.074Z,19.87
2019-02-17T21:36:57.648Z,17.70
2019-02-17T21:39:27.051Z,17.65
2019-02-17T21:41:57.441Z,18.05
2019-02-17T21:44:27.209Z,17.50
2019-02-17T21:46:56.564Z,16.40
2019-02-17T21:49:25.779Z,17.32
2019-02-17T21:51:55.207Z,17.05
2019-02-17T21:54:24.570Z,19.25
2019-02-17T21:56:53.835Z,17.37
2019-02-17T21:59:22.824Z,18.17
2019-02-17T22:01:51.800Z,19.37
2019-02-17T22:04:20.421Z,17.70
2019-02-17T22:06:49.788Z,18.65
2019-02-17T22:09:18.780Z,17.67
2019-02-17T22:11:48.177Z,18.67
2019-02-17T22:14:17.858Z,17.55
2019-02-17T22:16:47.761Z,19.00
2019-02-17T22:19:17.214Z,15.65
2019-02-17T22:21:47.079Z,18.12
2019-02-17T22:24:16.817Z,17.65
2019-02-17T22:26:46.097Z,16.65
2019-02-17T22:29:15.818Z,18.27
2019-02-17T22:31:45.529Z,18.45
2019-02-17T22:34:15.282Z,18.62
2019-02-17T22:36:44.948Z,19.50
2019-02-17T22:39:14.392Z,18.17
2019-02-17T22:41:43.760Z,19.25
2019-02-17T22:44:13.365Z,18.37
2019-02-17T22:46:43.101Z,19.23
2019-02-17T22:49:12.825Z,20.00
2019-02-17T22:51:42.333Z,19.02
2019-02-17T22:54:11.857Z,17.80
2019-02-17T22:56:41.536Z,18.90
2019-02-17T22:59:11.161Z,18.50
2019-02-17T23:01:41.011Z,16.67
2019-02-17T23:04:10.571Z,17.70
2019-02-17T23:06:40.199Z,17.57
2019-02-17T23:09:09.865Z,19.62
2019-02-17T23:11:39.469Z,19.90
2019-02-17T23:14:08.922Z,17.30
2019-02-17T23:16:38.137Z,20.50
2019-02-17T23:19:07.782Z,19.62
2019-02-17T23:21:37.455Z,19.98
2019-02-17T23:24:07.101Z,19.57
2019-02-17T23:26:36.815Z,19.92
2019-02-17T23:29:06.564Z,18.95
2019-02-17T23:31:36.145Z,18.57
2019-02-17T23:34:06.028Z,17.48
2019-02-17T23:36:35.373Z,18.60
2019-02-17T23:39:05.837Z,19.80
2019-02-17T23:41:34.802Z,18.57
2019-02-17T23:44:04.582Z,19.12
2019-02-17T23:46:33.925Z,19.05
2019-02-17T23:49:03.227Z,20.40
2019-02-17T23:51:33.088Z,19.27
2019-02-17T23:54:02.738Z,19.07
2019-02-17T23:56:32.965Z,18.12
2019-02-17T23:59:02.549Z,18.25
